Time;durP1;ratioP1;P1;durP2;ratioP2;P2;SDS_P1;SDS_P2;PMS_P1;PMS_P2;Temp;Humidity;BMP_temperature;BMP_pressure;BME280_temperature;BME280_humidity;BME280_pressure;Samples;Min_cycle;Max_cycle;Signal;HPM_P1;HPM_P2
2022/07/02 00:01:52;;;;;;;3.67;0.50;;;18.50;53.50;;;;;;2305743;54;21504;-73
2022/07/02 00:04:32;;;;;;;0.93;0.65;;;18.50;53.80;;;;;;2320533;54;20994;-71
2022/07/02 00:06:58;;;;;;;0.77;0.40;;;18.50;53.90;;;;;;2317310;54;21400;-71
2022/07/02 00:09:26;;;;;;;1.05;0.50;;;18.50;53.70;;;;;;2317699;54;21530;-70
2022/07/02 00:12:00;;;;;;;1.02;0.40;;;18.40;53.80;;;;;;2311372;54;21045;-70
2022/07/02 00:14:27;;;;;;;1.20;0.60;;;18.40;53.90;;;;;;2316771;54;21143;-72
2022/07/02 00:16:54;;;;;;;1.90;0.60;;;18.40;53.80;;;;;;2289781;54;21461;-70
2022/07/02 00:19:21;;;;;;;1.33;0.40;;;18.40;54.50;;;;;;2305733;54;21131;-71
2022/07/02 00:21:48;;;;;;;1.08;0.45;;;18.40;54.00;;;;;;2313653;54;21472;-71
2022/07/02 00:24:14;;;;;;;1.10;0.40;;;18.40;54.00;;;;;;2312781;54;21034;-71
2022/07/02 00:27:11;;;;;;;2.22;0.40;;;18.40;53.90;;;;;;2313592;54;21553;-72
2022/07/02 00:30:00;;;;;;;0.90;0.40;;;18.30;54.00;;;;;;2314537;54;21372;-71
2022/07/02 00:32:30;;;;;;;1.10;0.35;;;18.30;54.00;;;;;;2532764;54;21127;-71
2022/07/02 00:35:12;;;;;;;1.17;0.40;;;18.20;54.00;;;;;;2320999;54;20962;-71
2022/07/02 00:37:38;;;;;;;0.57;0.40;;;18.20;54.50;;;;;;2316171;54;20976;-71
2022/07/02 00:40:07;;;;;;;0.70;0.37;;;18.20;54.20;;;;;;2304110;54;21045;-71
2022/07/02 00:42:35;;;;;;;0.45;0.30;;;18.20;54.30;;;;;;2308674;54;21478;-70
2022/07/02 00:45:02;;;;;;;0.45;0.30;;;18.10;54.30;;;;;;2309864;54;21434;-71
2022/07/02 00:47:28;;;;;;;1.05;0.40;;;18.10;54.30;;;;;;2318956;54;21123;-73
2022/07/02 00:49:55;;;;;;;0.52;0.22;;;18.10;54.40;;;;;;2504154;54;21010;-72
2022/07/02 00:52:21;;;;;;;1.55;0.40;;;18.10;54.30;;;;;;2319826;54;21589;-71
2022/07/02 00:54:54;;;;;;;1.73;0.50;;;18.10;54.30;;;;;;2448662;54;20934;-71
2022/07/02 00:57:20;;;;;;;1.62;0.50;;;18.10;54.50;;;;;;2297517;54;21026;-71
2022/07/02 00:59:46;;;;;;;1.48;0.40;;;18.10;54.40;;;;;;2336900;54;21022;-71
2022/07/02 01:02:14;;;;;;;1.75;0.40;;;18.00;54.40;;;;;;2327260;54;20958;-71
2022/07/02 01:04:40;;;;;;;1.20;0.40;;;18.00;54.50;;;;;;2298833;54;20981;-71
2022/07/02 01:07:08;;;;;;;1.98;0.52;;;18.00;54.70;;;;;;2309464;54;21450;-71
2022/07/02 01:12:24;;;;;;;1.12;0.37;;;18.00;54.70;;;;;;2390034;54;21014;-71
2022/07/02 01:14:54;;;;;;;0.75;0.40;;;18.00;54.60;;;;;;2402281;54;21636;-70
2022/07/02 01:17:20;;;;;;;0.80;0.40;;;18.00;54.60;;;;;;2322660;54;21013;-71
2022/07/02 01:19:47;;;;;;;0.95;0.47;;;18.00;54.60;;;;;;2304558;54;20957;-70
2022/07/02 01:22:18;;;;;;;0.98;0.40;;;18.00;54.50;;;;;;2312610;54;21034;-71
2022/07/02 01:24:45;;;;;;;0.90;0.40;;;17.90;54.50;;;;;;2549215;54;21474;-73
2022/07/02 01:27:11;;;;;;;0.93;0.43;;;17.90;54.60;;;;;;2315531;54;20985;-71
2022/07/02 01:29:38;;;;;;;1.02;0.47;;;17.90;54.70;;;;;;2310326;54;20949;-71
2022/07/02 01:32:05;;;;;;;0.70;0.30;;;17.90;54.70;;;;;;2314332;54;20946;-71
2022/07/02 01:34:51;;;;;;;0.80;0.40;;;17.90;54.70;;;;;;2324818;54;20951;-69
2022/07/02 01:37:19;;;;;;;1.02;0.45;;;17.90;54.90;;;;;;2321814;54;20942;-72
2022/07/02 01:39:45;;;;;;;1.12;0.43;;;17.90;54.70;;;;;;2547633;54;20974;-71
2022/07/02 01:42:12;;;;;;;0.73;0.37;;;17.80;54.60;;;;;;2309678;54;21005;-71
2022/07/02 01:44:38;;;;;;;0.88;0.40;;;17.80;54.60;;;;;;2411225;54;20993;-71
2022/07/02 01:47:06;;;;;;;0.77;0.30;;;17.80;54.80;;;;;;2318341;54;20943;-71
2022/07/02 01:49:32;;;;;;;0.82;0.43;;;17.80;54.80;;;;;;2309621;54;20953;-73
2022/07/02 01:51:59;;;;;;;0.77;0.32;;;17.80;54.80;;;;;;2310928;54;20999;-71
2022/07/02 01:54:25;;;;;;;0.55;0.25;;;17.80;54.70;;;;;;2318311;54;21534;-71
2022/07/02 01:56:52;;;;;;;0.85;0.40;;;17.70;54.60;;;;;;2301401;54;21068;-71
2022/07/02 01:59:18;;;;;;;0.98;0.68;;;17.70;54.60;;;;;;2310195;54;21014;-73
2022/07/02 02:01:45;;;;;;;0.73;0.52;;;17.70;54.70;;;;;;2318682;54;20982;-73
2022/07/02 02:04:11;;;;;;;2.53;0.60;;;17.70;54.70;;;;;;2318300;54;21002;-71
2022/07/02 02:06:56;;;;;;;1.42;0.50;;;17.70;54.80;;;;;;2324029;54;21740;-72
2022/07/02 02:09:22;;;;;;;1.50;0.50;;;17.60;55.20;;;;;;2298455;54;21486;-70
2022/07/02 02:11:49;;;;;;;1.60;0.47;;;17.60;54.80;;;;;;2311758;54;21478;-69
2022/07/02 02:14:16;;;;;;;1.30;0.50;;;17.60;54.80;;;;;;2345122;54;20921;-69
2022/07/02 02:16:43;;;;;;;1.02;0.40;;;17.60;54.80;;;;;;2321944;54;20932;-71
2022/07/02 02:19:15;;;;;;;0.90;0.40;;;17.60;54.90;;;;;;2306101;54;21022;-73
2022/07/02 02:21:42;;;;;;;1.05;0.40;;;17.50;55.00;;;;;;2305187;54;21002;-70
2022/07/02 02:24:08;;;;;;;2.00;0.43;;;17.50;55.10;;;;;;2312136;54;21053;-73
2022/07/02 02:26:47;;;;;;;2.55;0.37;;;17.50;55.20;;;;;;2318241;54;21561;-72
2022/07/02 02:29:13;;;;;;;0.80;0.40;;;17.50;55.20;;;;;;2406150;54;21478;-70
2022/07/02 02:31:40;;;;;;;0.88;0.40;;;17.50;55.00;;;;;;2323639;54;20977;-70
2022/07/02 02:34:06;;;;;;;1.62;0.50;;;17.40;54.90;;;;;;2423258;54;21421;-71
2022/07/02 02:36:32;;;;;;;2.97;0.40;;;17.40;54.80;;;;;;2313790;54;21509;-72
2022/07/02 02:38:59;;;;;;;0.60;0.40;;;17.40;54.80;;;;;;2324572;54;21077;-70
2022/07/02 02:41:46;;;;;;;0.80;0.30;;;17.30;54.80;;;;;;2397253;54;21534;-70
2022/07/02 02:44:13;;;;;;;0.82;0.40;;;17.30;55.00;;;;;;2301629;54;21592;-70
2022/07/02 02:46:39;;;;;;;1.02;0.43;;;17.30;54.80;;;;;;2309214;54;21459;-69
2022/07/02 02:49:05;;;;;;;1.73;0.32;;;17.20;54.80;;;;;;2312364;54;20942;-71
2022/07/02 02:51:32;;;;;;;1.20;0.50;;;17.20;54.80;;;;;;2346168;54;21193;-70
2022/07/02 02:54:01;;;;;;;1.60;0.60;;;17.20;54.80;;;;;;2323044;54;21084;-73
2022/07/02 02:56:28;;;;;;;1.12;0.50;;;17.20;55.10;;;;;;2551833;54;20994;-70
2022/07/02 02:58:54;;;;;;;0.80;0.40;;;17.20;55.10;;;;;;2313524;54;20943;-71
2022/07/02 03:01:21;;;;;;;1.67;0.50;;;17.10;55.00;;;;;;2314420;54;21513;-70
2022/07/02 03:03:47;;;;;;;0.90;0.45;;;17.10;55.10;;;;;;2378963;54;20969;-72
2022/07/02 03:06:23;;;;;;;1.30;0.40;;;17.10;55.10;;;;;;2548702;54;20929;-72
2022/07/02 03:08:49;;;;;;;0.75;0.40;;;17.10;55.40;;;;;;2316515;54;20966;-71
2022/07/02 03:11:15;;;;;;;1.10;0.32;;;17.00;55.20;;;;;;2306368;54;21060;-71
2022/07/02 03:13:59;;;;;;;1.08;0.43;;;17.00;55.20;;;;;;2318309;54;21384;-73
2022/07/02 03:16:25;;;;;;;0.77;0.40;;;17.00;55.40;;;;;;2313413;54;21005;-70
2022/07/02 03:18:52;;;;;;;1.30;0.43;;;17.00;55.20;;;;;;2314504;54;20954;-70
2022/07/02 03:21:18;;;;;;;0.65;0.30;;;16.90;55.20;;;;;;2302650;54;21576;-70
2022/07/02 03:23:59;;;;;;;0.62;0.40;;;16.90;55.10;;;;;;2317440;54;20969;-70
2022/07/02 03:26:26;;;;;;;1.30;0.70;;;16.90;55.30;;;;;;2309489;54;21517;-70
2022/07/02 03:28:54;;;;;;;0.85;0.40;;;16.90;55.20;;;;;;2309594;54;21009;-71
2022/07/02 03:31:20;;;;;;;0.70;0.40;;;16.90;55.30;;;;;;2319415;54;21053;-71
2022/07/02 03:34:04;;;;;;;1.40;0.45;;;16.80;55.20;;;;;;2552688;54;21073;-71
2022/07/02 03:36:31;;;;;;;1.15;0.40;;;16.80;55.50;;;;;;2309818;54;21460;-70
2022/07/02 03:38:57;;;;;;;0.68;0.30;;;16.80;55.30;;;;;;2454721;54;20982;-70
2022/07/02 03:41:50;;;;;;;1.15;0.40;;;16.80;55.40;;;;;;2313976;54;20929;-70
2022/07/02 03:44:17;;;;;;;0.50;0.30;;;16.80;55.60;;;;;;2316450;54;20954;-71
2022/07/02 03:46:43;;;;;;;0.47;0.40;;;16.80;55.40;;;;;;2311321;54;20941;-72
2022/07/02 03:49:09;;;;;;;0.68;0.40;;;16.80;55.40;;;;;;2386273;54;21684;-70
2022/07/02 03:51:36;;;;;;;1.25;0.40;;;16.70;55.40;;;;;;2310965;54;21419;-71
2022/07/02 03:54:20;;;;;;;1.42;0.50;;;16.70;55.50;;;;;;2419730;54;21543;-71
2022/07/02 03:56:54;;;;;;;1.10;0.30;;;16.70;55.90;;;;;;2296310;55;20956;-71
2022/07/02 03:59:20;;;;;;;1.10;0.40;;;16.70;55.70;;;;;;2300897;54;21004;-71
2022/07/02 04:01:46;;;;;;;0.55;0.28;;;16.70;55.60;;;;;;2286037;54;1770070;-70
2022/07/02 04:04:13;;;;;;;0.65;0.40;;;16.70;55.60;;;;;;2310212;54;21411;-72
2022/07/02 04:06:39;;;;;;;1.00;0.50;;;16.70;55.60;;;;;;2298496;54;21074;-72
2022/07/02 04:09:05;;;;;;;0.55;0.30;;;16.60;55.60;;;;;;2316205;54;21532;-71
2022/07/02 04:11:31;;;;;;;0.77;0.32;;;16.60;55.80;;;;;;2309625;54;20933;-70
2022/07/02 04:13:58;;;;;;;1.00;0.50;;;16.60;55.80;;;;;;2316948;54;21022;-70
2022/07/02 04:16:24;;;;;;;0.90;0.50;;;16.60;55.90;;;;;;2428249;54;21322;-70
2022/07/02 04:18:50;;;;;;;0.98;0.45;;;16.60;56.00;;;;;;2320489;54;20990;-70
2022/07/02 04:21:37;;;;;;;1.12;0.50;;;16.60;56.00;;;;;;2314748;54;20934;-70
2022/07/02 04:24:09;;;;;;;0.70;0.40;;;16.60;56.00;;;;;;2309883;54;21087;-70
2022/07/02 04:26:36;;;;;;;1.05;0.50;;;16.60;56.10;;;;;;2315959;54;20953;-70
2022/07/02 04:29:02;;;;;;;0.60;0.32;;;16.60;56.00;;;;;;2337897;54;21469;-71
2022/07/02 04:31:43;;;;;;;1.12;0.50;;;16.60;56.10;;;;;;2318019;54;21382;-71
2022/07/02 04:34:09;;;;;;;0.82;0.30;;;16.60;56.30;;;;;;2551078;54;21383;-71
2022/07/02 04:36:37;;;;;;;2.12;0.50;;;16.60;56.10;;;;;;2313938;54;20952;-71
2022/07/02 04:39:04;;;;;;;2.17;0.52;;;16.60;56.10;;;;;;2309317;54;21012;-70
2022/07/02 04:41:33;;;;;;;0.98;0.50;;;16.60;56.20;;;;;;2542869;54;20937;-70
2022/07/02 04:43:59;;;;;;;0.60;0.40;;;16.60;56.30;;;;;;2320050;54;21049;-71
2022/07/02 04:46:26;;;;;;;0.80;0.50;;;16.60;56.30;;;;;;2326781;54;21006;-71
2022/07/02 04:49:10;;;;;;;0.80;0.40;;;16.60;56.30;;;;;;2509792;54;20917;-70
2022/07/02 04:51:42;;;;;;;0.88;0.37;;;16.60;56.70;;;;;;2317942;54;21011;-70
2022/07/02 04:54:20;;;;;;;1.48;0.40;;;16.60;56.60;;;;;;2551870;53;21477;-70
2022/07/02 04:56:48;;;;;;;0.77;0.40;;;16.60;56.70;;;;;;2315057;54;21441;-72
2022/07/02 04:59:20;;;;;;;1.17;0.50;;;16.60;56.60;;;;;;2551571;54;20945;-73
2022/07/02 05:02:15;;;;;;;1.35;0.40;;;16.70;56.80;;;;;;2313322;54;21489;-73
2022/07/02 05:04:41;;;;;;;1.42;0.50;;;16.70;57.20;;;;;;2459013;54;21463;-73
2022/07/02 05:07:08;;;;;;;1.17;0.50;;;16.70;56.90;;;;;;2312374;54;21452;-70
2022/07/02 05:09:34;;;;;;;0.88;0.40;;;16.70;57.00;;;;;;2317407;54;20961;-70
2022/07/02 05:12:01;;;;;;;1.25;0.50;;;16.80;57.20;;;;;;2310464;54;20937;-72
2022/07/02 05:14:28;;;;;;;2.72;0.50;;;16.80;57.30;;;;;;2318082;54;21343;-71
2022/07/02 05:16:54;;;;;;;2.22;0.50;;;16.80;57.40;;;;;;2315856;54;21022;-71
2022/07/02 05:19:33;;;;;;;1.25;0.40;;;16.80;57.50;;;;;;2315700;54;21048;-71
2022/07/02 05:21:59;;;;;;;1.15;0.60;;;16.90;57.90;;;;;;2302588;54;21363;-71
2022/07/02 05:24:25;;;;;;;1.58;0.70;;;16.90;57.60;;;;;;2313572;54;21423;-70
2022/07/02 05:27:03;;;;;;;2.30;0.80;;;17.00;57.80;;;;;;2302657;54;20928;-71
2022/07/02 05:29:30;;;;;;;0.90;0.40;;;17.00;58.80;;;;;;2321221;54;21803;-69
2022/07/02 05:31:56;;;;;;;1.48;0.62;;;17.00;57.90;;;;;;2313872;54;21004;-71
2022/07/02 05:34:23;;;;;;;1.75;0.70;;;17.10;58.00;;;;;;2317351;54;20977;-69
2022/07/02 05:37:07;;;;;;;1.98;0.93;;;17.20;58.20;;;;;;2315899;54;20966;-70
2022/07/02 05:39:33;;;;;;;4.28;0.75;;;17.20;58.80;;;;;;2318085;54;21297;-71
2022/07/02 05:41:59;;;;;;;4.12;1.00;;;17.30;58.50;;;;;;2309560;54;20995;-73
2022/07/02 05:44:26;;;;;;;3.40;0.88;;;17.30;58.70;;;;;;2307587;54;20977;-71
2022/07/02 05:46:52;;;;;;;2.85;0.80;;;17.40;58.80;;;;;;2316629;54;21025;-70
2022/07/02 05:49:18;;;;;;;1.27;0.60;;;17.50;58.80;;;;;;2310989;54;20948;-71
2022/07/02 05:51:45;;;;;;;2.10;0.80;;;17.50;58.80;;;;;;2314781;54;21035;-71
2022/07/02 05:54:11;;;;;;;2.22;0.88;;;17.60;58.90;;;;;;2315209;54;20988;-71
2022/07/02 05:56:38;;;;;;;2.22;0.90;;;17.70;58.90;;;;;;2319559;54;21649;-71
2022/07/02 05:59:05;;;;;;;2.47;0.88;;;17.70;59.00;;;;;;2309647;54;21016;-71
2022/07/02 06:01:32;;;;;;;2.03;0.60;;;17.80;59.20;;;;;;2318098;54;21625;-71
2022/07/02 06:03:59;;;;;;;1.50;0.73;;;17.90;59.20;;;;;;2312837;54;20968;-71
2022/07/02 06:09:40;;;;;;;2.15;0.73;;;18.00;59.30;;;;;;2319796;54;21032;-71
2022/07/02 06:12:07;;;;;;;2.58;0.70;;;18.10;59.70;;;;;;2533409;54;20905;-72
2022/07/02 06:14:42;;;;;;;1.25;0.60;;;18.20;59.40;;;;;;2310797;54;20921;-73
2022/07/02 06:17:10;;;;;;;1.75;0.80;;;18.30;59.80;;;;;;2322395;54;21340;-71
2022/07/02 06:19:38;;;;;;;1.83;0.75;;;18.30;59.40;;;;;;2377631;54;21444;-71
2022/07/02 06:22:05;;;;;;;1.25;0.60;;;18.40;59.50;;;;;;2304182;54;21397;-73
2022/07/02 06:24:31;;;;;;;1.55;0.70;;;18.50;59.50;;;;;;2311892;54;21021;-70
2022/07/02 06:26:58;;;;;;;2.08;0.75;;;18.60;59.60;;;;;;2439261;54;21058;-70
2022/07/02 06:29:24;;;;;;;3.05;0.70;;;18.60;59.50;;;;;;2303344;54;21049;-71
2022/07/02 06:31:50;;;;;;;1.70;0.70;;;18.70;59.60;;;;;;2310050;54;21021;-71
2022/07/02 06:34:17;;;;;;;1.75;0.70;;;18.80;59.60;;;;;;2390154;54;21427;-73
2022/07/02 06:36:43;;;;;;;1.27;0.60;;;18.90;59.70;;;;;;2312093;54;20985;-70
2022/07/02 06:39:09;;;;;;;1.35;0.70;;;18.90;59.70;;;;;;2321429;54;21541;-71
2022/07/02 06:44:21;;;;;;;1.50;0.70;;;19.10;60.00;;;;;;2318461;54;20942;-73
2022/07/02 06:46:50;;;;;;;1.95;0.70;;;19.20;60.00;;;;;;2309271;54;20885;-73
2022/07/02 06:49:18;;;;;;;1.65;0.60;;;19.30;60.10;;;;;;2300547;55;21559;-72
2022/07/02 06:51:44;;;;;;;1.30;0.60;;;19.30;60.00;;;;;;2482050;54;21421;-74
2022/07/02 06:54:11;;;;;;;1.85;0.68;;;19.40;60.10;;;;;;2315130;54;20986;-72
2022/07/02 06:56:38;;;;;;;1.42;0.68;;;19.50;60.20;;;;;;2524594;54;21515;-72
2022/07/02 06:59:04;;;;;;;2.17;0.80;;;19.60;60.20;;;;;;2328607;54;21430;-70
2022/07/02 07:01:31;;;;;;;2.67;0.80;;;19.70;60.10;;;;;;2357421;54;20977;-72
2022/07/02 07:03:57;;;;;;;1.75;0.68;;;19.80;60.10;;;;;;2315481;54;20983;-73
2022/07/02 07:06:25;;;;;;;1.12;0.55;;;19.90;60.10;;;;;;2321043;54;21346;-73
2022/07/02 07:08:54;;;;;;;3.15;0.90;;;19.90;60.10;;;;;;2305968;54;21041;-73
2022/07/02 07:11:21;;;;;;;2.28;1.00;;;20.00;60.30;;;;;;2295783;54;20986;-71
2022/07/02 07:13:48;;;;;;;4.80;0.90;;;20.10;60.20;;;;;;2349056;54;21533;-69
2022/07/02 07:16:17;;;;;;;2.97;0.75;;;20.20;60.20;;;;;;2318505;54;20958;-72
2022/07/02 07:19:03;;;;;;;1.55;0.57;;;20.30;60.20;;;;;;2440839;54;20921;-73
2022/07/02 07:21:29;;;;;;;2.40;0.60;;;20.40;60.10;;;;;;2417508;54;21030;-72
2022/07/02 07:23:55;;;;;;;2.30;0.80;;;20.50;60.10;;;;;;2306684;54;21502;-74
2022/07/02 07:26:23;;;;;;;1.45;0.60;;;20.60;60.10;;;;;;2360532;54;21065;-71
2022/07/02 07:28:49;;;;;;;1.08;0.52;;;20.60;60.00;;;;;;2324136;54;21073;-73
2022/07/02 07:31:20;;;;;;;0.93;0.50;;;20.70;59.90;;;;;;2405319;54;20921;-74
2022/07/02 07:33:49;;;;;;;1.75;0.60;;;20.80;60.00;;;;;;2313149;54;21069;-73
2022/07/02 07:36:17;;;;;;;1.33;0.50;;;20.90;60.10;;;;;;2298371;54;20991;-72
2022/07/02 07:38:43;;;;;;;1.50;0.57;;;21.00;60.00;;;;;;2315027;54;21010;-72
2022/07/02 07:41:10;;;;;;;1.92;0.70;;;21.00;60.00;;;;;;2356454;54;20949;-72
2022/07/02 07:43:37;;;;;;;2.08;0.68;;;21.10;60.00;;;;;;2325479;54;20974;-72
2022/07/02 07:46:03;;;;;;;2.00;0.73;;;21.20;60.00;;;;;;2384574;54;20978;-74
2022/07/02 07:48:31;;;;;;;1.60;0.70;;;21.30;60.00;;;;;;2444425;54;21073;-71
2022/07/02 07:51:00;;;;;;;2.30;0.70;;;21.40;59.90;;;;;;2381018;54;20952;-73
2022/07/02 07:53:26;;;;;;;1.87;0.73;;;21.50;59.90;;;;;;2316310;54;20937;-72
2022/07/02 07:55:53;;;;;;;1.90;0.77;;;21.50;59.80;;;;;;2323829;54;21253;-72
2022/07/02 07:58:19;;;;;;;1.58;0.60;;;21.60;59.80;;;;;;2319874;54;21483;-71
2022/07/02 08:00:46;;;;;;;1.25;0.60;;;21.70;59.80;;;;;;2317597;54;20978;-72
2022/07/02 08:03:14;;;;;;;1.60;0.70;;;21.80;59.80;;;;;;2324058;54;21070;-70
2022/07/02 08:05:41;;;;;;;2.20;0.65;;;21.90;59.70;;;;;;2423971;54;21547;-71
2022/07/02 08:08:07;;;;;;;1.30;0.93;;;22.00;59.80;;;;;;2314343;54;21454;-72
2022/07/02 08:10:39;;;;;;;1.58;0.57;;;22.00;59.80;;;;;;2315893;54;21283;-73
2022/07/02 08:13:42;;;;;;;1.25;0.50;;;22.10;59.80;;;;;;2308359;54;21056;-72
2022/07/02 08:16:18;;;;;;;1.10;0.50;;;22.20;59.90;;;;;;2314933;54;21439;-70
2022/07/02 08:18:50;;;;;;;1.58;0.60;;;22.30;59.60;;;;;;2313356;54;20986;-71
2022/07/02 08:21:46;;;;;;;0.80;0.40;;;22.40;59.60;;;;;;2312494;54;20988;-72
2022/07/02 08:24:12;;;;;;;1.08;0.50;;;22.50;59.50;;;;;;2295850;54;21442;-71
2022/07/02 08:26:39;;;;;;;1.42;0.40;;;22.60;59.40;;;;;;2326187;54;21375;-72
2022/07/02 08:29:05;;;;;;;1.00;0.50;;;22.70;59.30;;;;;;2345075;54;21390;-71
2022/07/02 08:31:31;;;;;;;1.90;0.62;;;22.80;59.20;;;;;;2323920;54;21394;-72
2022/07/02 08:33:58;;;;;;;1.05;0.50;;;22.90;59.10;;;;;;2318947;54;21731;-73
2022/07/02 08:36:25;;;;;;;2.35;0.70;;;23.00;59.00;;;;;;2422714;54;21482;-72
2022/07/02 08:38:52;;;;;;;1.10;0.50;;;23.10;59.00;;;;;;2374251;54;21005;-71
2022/07/02 08:41:18;;;;;;;1.25;0.55;;;23.10;58.90;;;;;;2392932;54;21441;-74
2022/07/02 08:44:12;;;;;;;1.00;0.50;;;23.20;58.80;;;;;;2304508;54;20921;-72
2022/07/02 08:46:38;;;;;;;1.40;0.57;;;23.30;58.50;;;;;;2344466;54;20901;-73
2022/07/02 08:49:20;;;;;;;1.70;0.70;;;23.40;58.60;;;;;;2315765;54;21367;-71
2022/07/02 08:52:02;;;;;;;1.98;0.60;;;23.50;58.30;;;;;;2398189;54;21523;-73
2022/07/02 08:54:28;;;;;;;0.98;0.50;;;23.60;58.50;;;;;;2311188;54;22124;-71
2022/07/02 08:57:10;;;;;;;0.93;0.50;;;23.60;58.30;;;;;;2458174;54;20981;-73
2022/07/02 08:59:36;;;;;;;1.77;0.65;;;23.70;57.70;;;;;;2350621;54;21470;-73
2022/07/02 09:02:03;;;;;;;1.25;0.57;;;23.80;57.90;;;;;;2319362;54;21338;-71
2022/07/02 09:04:29;;;;;;;1.33;0.50;;;23.90;57.80;;;;;;2303624;54;21410;-71
2022/07/02 09:07:27;;;;;;;1.42;0.70;;;23.90;57.70;;;;;;2401964;54;20990;-73
2022/07/02 09:09:53;;;;;;;1.10;0.50;;;24.00;57.50;;;;;;2325006;54;20990;-72
2022/07/02 09:12:38;;;;;;;0.82;0.40;;;24.10;57.50;;;;;;2470702;54;20937;-73
2022/07/02 09:15:13;;;;;;;0.90;0.50;;;24.20;57.00;;;;;;2320569;54;21053;-73
2022/07/02 09:17:43;;;;;;;1.15;0.50;;;24.20;57.00;;;;;;2291178;55;21732;-73
2022/07/02 09:20:10;;;;;;;0.98;0.47;;;24.30;57.20;;;;;;2335565;55;20957;-73
2022/07/02 09:22:40;;;;;;;1.00;0.40;;;24.40;57.20;;;;;;2311692;54;21552;-73
2022/07/02 09:28:34;;;;;;;0.80;0.40;;;24.50;56.50;;;;;;2311106;54;20871;-74
2022/07/02 09:31:06;;;;;;;0.95;0.50;;;24.60;56.70;;;;;;2308996;54;20960;-75
2022/07/02 09:34:12;;;;;;;1.25;0.55;;;24.60;56.30;;;;;;2372819;54;20981;-73
2022/07/02 09:36:41;;;;;;;0.60;0.40;;;24.70;56.10;;;;;;2311304;54;20985;-75
2022/07/02 09:39:08;;;;;;;2.58;0.40;;;24.80;56.60;;;;;;2311317;54;21048;-73
2022/07/02 09:41:42;;;;;;;0.40;0.30;;;24.80;56.50;;;;;;2311584;54;21000;-75
2022/07/02 09:44:11;;;;;;;1.10;0.50;;;24.90;56.20;;;;;;2311332;54;21477;-74
2022/07/02 09:50:26;;;;;;;0.60;0.37;;;25.00;55.50;;;;;;2311326;54;21471;-75
2022/07/02 09:52:54;;;;;;;0.65;0.40;;;25.20;55.70;;;;;;2311179;54;20934;-74
2022/07/02 09:55:31;;;;;;;1.05;0.50;;;25.20;55.80;;;;;;2331294;54;21482;-73
2022/07/02 09:57:58;;;;;;;2.45;0.50;;;25.30;55.40;;;;;;2317304;54;21450;-73
2022/07/02 10:03:54;;;;;;;1.37;0.60;;;25.40;55.00;;;;;;2311523;54;20946;-75
2022/07/02 10:06:20;;;;;;;0.90;0.40;;;25.40;55.30;;;;;;2311656;54;20916;-76
2022/07/02 10:08:51;;;;;;;1.58;0.52;;;25.50;55.20;;;;;;2320466;54;20954;-74
2022/07/02 10:11:51;;;;;;;1.10;0.45;;;25.60;54.90;;;;;;2341782;54;21823;-75
2022/07/02 10:14:19;;;;;;;1.45;0.50;;;25.70;54.50;;;;;;2295613;55;20930;-74
2022/07/02 10:16:46;;;;;;;0.75;0.30;;;25.70;54.60;;;;;;2316281;54;21018;-74
2022/07/02 10:19:13;;;;;;;1.35;0.50;;;25.80;54.50;;;;;;2311874;54;20929;-74
2022/07/02 10:25:19;;;;;;;0.80;0.40;;;25.90;53.90;;;;;;2310332;54;20997;-75
2022/07/02 10:27:48;;;;;;;0.98;0.47;;;26.00;54.40;;;;;;2315757;54;20995;-74
2022/07/02 10:30:35;;;;;;;0.82;0.40;;;26.00;54.10;;;;;;2313321;54;21060;-74
2022/07/02 10:33:41;;;;;;;0.52;0.32;;;26.10;54.20;;;;;;2310557;54;20894;-74
2022/07/02 10:36:09;;;;;;;0.68;0.40;;;26.20;53.80;;;;;;2314588;54;20945;-74
2022/07/02 10:38:39;;;;;;;1.42;0.60;;;26.30;54.20;;;;;;2313388;54;21020;-74
2022/07/02 10:41:07;;;;;;;3.17;0.60;;;26.30;53.90;;;;;;2301667;54;20988;-74
2022/07/02 10:43:34;;;;;;;1.33;0.55;;;26.40;53.60;;;;;;2313562;54;20949;-74
2022/07/02 10:46:08;;;;;;;2.33;0.70;;;26.40;53.30;;;;;;2310661;54;20993;-73
2022/07/02 10:49:59;;;;;;;1.20;0.50;;;26.50;53.70;;;;;;2310055;54;21406;-74
2022/07/02 10:52:48;;;;;;;0.77;0.40;;;26.50;53.10;;;;;;2310899;54;20933;-74
2022/07/02 10:55:27;;;;;;;0.95;0.37;;;26.60;52.60;;;;;;2315519;54;21492;-74
2022/07/02 10:58:00;;;;;;;0.70;0.40;;;26.70;52.40;;;;;;2307248;54;20972;-74
2022/07/02 11:01:48;;;;;;;0.80;0.43;;;26.70;52.40;;;;;;2323856;54;20934;-76
2022/07/02 11:04:20;;;;;;;1.77;0.60;;;26.80;52.60;;;;;;2400966;54;21004;-74
2022/07/02 11:06:47;;;;;;;;;;;26.90;52.40;;;;;;2324175;54;20998;-75
2022/07/02 11:09:13;;;;;;;1.20;0.50;;;27.00;52.70;;;;;;2337986;54;20076;-75
2022/07/02 11:11:49;;;;;;;1.80;0.55;;;27.00;52.60;;;;;;2310309;54;20921;-75
2022/07/02 11:14:17;;;;;;;1.23;0.52;;;27.10;51.80;;;;;;2309051;54;20926;-74
2022/07/02 11:16:50;;;;;;;0.95;0.40;;;27.10;52.10;;;;;;2317899;54;21016;-73
2022/07/02 11:19:22;;;;;;;1.65;0.40;;;27.20;51.70;;;;;;2347879;54;21875;-74
2022/07/02 11:21:49;;;;;;;1.08;0.40;;;27.20;51.60;;;;;;2300336;55;20954;-74
2022/07/02 11:24:19;;;;;;;1.10;0.50;;;27.30;51.90;;;;;;2311669;54;20993;-74
2022/07/02 11:26:45;;;;;;;0.88;0.45;;;27.30;51.60;;;;;;2314338;54;21740;-74
2022/07/02 11:29:12;;;;;;;0.73;0.37;;;27.30;51.70;;;;;;2312542;54;20917;-73
2022/07/02 11:31:42;;;;;;;0.62;0.37;;;27.40;51.40;;;;;;2318880;54;21490;-73
2022/07/02 11:34:08;;;;;;;0.75;0.40;;;27.40;51.20;;;;;;2383993;54;20945;-74
2022/07/02 11:36:38;;;;;;;2.05;0.70;;;27.50;51.10;;;;;;2313502;54;20925;-74
2022/07/02 11:39:11;;;;;;;1.67;0.60;;;27.50;50.80;;;;;;2311022;54;21414;-74
2022/07/02 11:41:40;;;;;;;1.83;0.50;;;27.60;50.50;;;;;;2334735;54;20996;-74
2022/07/02 11:44:23;;;;;;;1.45;0.60;;;27.60;50.80;;;;;;2397880;54;21027;-74
2022/07/02 11:46:53;;;;;;;1.45;0.50;;;27.70;49.80;;;;;;2311565;54;21033;-74
2022/07/02 11:49:22;;;;;;;1.37;0.50;;;27.70;50.20;;;;;;2311153;54;20961;-74
2022/07/02 11:51:49;;;;;;;1.40;0.43;;;27.70;50.40;;;;;;2332162;54;20989;-75
2022/07/02 11:54:16;;;;;;;1.10;0.30;;;27.70;50.20;;;;;;2317793;54;20970;-74
2022/07/02 11:56:45;;;;;;;0.95;0.37;;;27.80;50.10;;;;;;2319196;54;20998;-75
2022/07/02 11:59:16;;;;;;;0.95;0.40;;;27.90;50.10;;;;;;2303149;54;20945;-74
2022/07/02 12:01:43;;;;;;;0.93;0.40;;;27.90;50.00;;;;;;2311174;54;20905;-74
2022/07/02 12:04:20;;;;;;;0.95;0.45;;;27.90;49.70;;;;;;2310824;54;20997;-74
2022/07/02 12:06:48;;;;;;;1.00;0.50;;;28.00;49.70;;;;;;2393708;54;20992;-74
2022/07/02 12:09:16;;;;;;;1.20;0.45;;;28.00;49.60;;;;;;2313942;54;21028;-74
2022/07/02 12:11:47;;;;;;;0.98;0.40;;;28.10;49.50;;;;;;2378637;54;20975;-74
2022/07/02 12:14:13;;;;;;;0.88;0.40;;;28.10;49.30;;;;;;2313516;54;20938;-74
2022/07/02 12:16:40;;;;;;;0.50;0.30;;;28.10;49.40;;;;;;2310197;54;21020;-75
2022/07/02 12:19:08;;;;;;;0.70;0.30;;;28.20;49.60;;;;;;2316223;54;21077;-74
2022/07/02 12:21:42;;;;;;;1.67;0.40;;;28.20;49.40;;;;;;2308253;54;21019;-74
2022/07/02 12:24:24;;;;;;;1.05;0.40;;;28.30;49.00;;;;;;2316087;54;21897;-74
2022/07/02 12:27:11;;;;;;;2.00;0.40;;;28.30;48.30;;;;;;2314928;54;20956;-74
2022/07/02 12:29:56;;;;;;;0.70;0.30;;;28.40;48.00;;;;;;2311597;54;20952;-74
2022/07/02 12:32:32;;;;;;;1.12;0.52;;;28.40;48.50;;;;;;2309797;54;20937;-74
2022/07/02 12:35:00;;;;;;;0.65;0.37;;;28.50;48.00;;;;;;2311180;54;20980;-74
2022/07/02 12:37:37;;;;;;;0.93;0.50;;;28.50;48.50;;;;;;2366155;54;20929;-75
2022/07/02 12:40:13;;;;;;;0.95;0.40;;;28.50;48.40;;;;;;2311260;54;20957;-75
2022/07/02 12:42:54;;;;;;;1.15;0.50;;;28.60;48.50;;;;;;2345012;54;21431;-75
2022/07/02 12:45:34;;;;;;;0.77;0.35;;;28.70;47.80;;;;;;2311268;54;21020;-74
2022/07/02 12:48:11;;;;;;;0.68;0.30;;;28.70;48.10;;;;;;2309928;54;20940;-74
2022/07/02 12:50:39;;;;;;;1.12;0.40;;;28.80;48.00;;;;;;2311675;54;21693;-74
2022/07/02 12:53:15;;;;;;;1.12;0.35;;;28.80;48.10;;;;;;2311358;54;21235;-73
2022/07/02 12:55:52;;;;;;;0.88;0.40;;;28.90;47.50;;;;;;2311407;54;21457;-74
2022/07/02 12:58:18;;;;;;;0.60;0.30;;;28.90;47.70;;;;;;2311213;54;21009;-73
2022/07/02 13:00:44;;;;;;;1.33;0.40;;;29.00;47.90;;;;;;2311080;54;20981;-74
2022/07/02 13:03:13;;;;;;;0.93;0.30;;;29.00;47.70;;;;;;2311588;54;20901;-73
2022/07/02 13:05:44;;;;;;;0.50;0.25;;;29.10;47.50;;;;;;2311067;54;21029;-74
2022/07/02 13:08:10;;;;;;;1.20;0.30;;;29.20;47.10;;;;;;2356187;54;21855;-74
2022/07/02 13:10:37;;;;;;;0.68;0.40;;;29.20;47.80;;;;;;2313135;54;20893;-74
2022/07/02 13:13:04;;;;;;;0.80;0.30;;;29.20;46.90;;;;;;2311084;54;20925;-74
2022/07/02 13:15:30;;;;;;;0.52;0.20;;;29.30;46.80;;;;;;2364125;54;21052;-73
2022/07/02 13:17:57;;;;;;;0.60;0.30;;;29.30;46.60;;;;;;2310679;54;21681;-74
2022/07/02 13:20:24;;;;;;;1.95;0.30;;;29.40;46.80;;;;;;2315621;54;20893;-74
2022/07/02 13:22:51;;;;;;;0.28;0.20;;;29.40;46.50;;;;;;2314474;54;20953;-74
2022/07/02 13:25:19;;;;;;;0.95;0.30;;;29.50;46.40;;;;;;2307792;54;20985;-74
2022/07/02 13:27:45;;;;;;;0.95;0.40;;;29.50;46.20;;;;;;2310834;54;20980;-74
2022/07/02 13:30:17;;;;;;;0.50;0.30;;;29.60;46.20;;;;;;2311617;54;20969;-74